Time;durP1;ratioP1;P1;durP2;ratioP2;P2;SDS_P1;SDS_P2;PMS_P1;PMS_P2;Temp;Humidity;BMP_temperature;BMP_pressure;BME280_temperature;BME280_humidity;BME280_pressure;Samples;Min_cycle;Max_cycle;Signal;HPM_P1;HPM_P2
2022/01/12 00:00:14;;;;;;;18.00;11.48;;;;;;;3.12;71.02;100720.69;2623367;54;20039;-69
2022/01/12 00:02:44;;;;;;;15.60;10.98;;;;;;;3.14;71.11;100718.81;2623125;47;20023;-69
2022/01/12 00:05:14;;;;;;;18.15;11.55;;;;;;;3.13;70.96;100719.75;2623449;54;20033;-69
2022/01/12 00:07:43;;;;;;;15.57;11.43;;;;;;;3.13;71.45;100725.81;2622512;54;20064;-69
2022/01/12 00:10:13;;;;;;;19.40;12.38;;;;;;;3.15;71.27;100718.72;2624094;54;20046;-69
2022/01/12 00:12:43;;;;;;;16.00;11.32;;;;;;;3.09;71.17;100713.03;2623222;47;20030;-69
2022/01/12 00:15:16;;;;;;;17.90;11.75;;;;;;;3.09;71.04;100723.50;2623983;54;20042;-70
2022/01/12 00:17:46;;;;;;;23.10;12.35;;;;;;;3.05;71.61;100716.78;2623576;54;20022;-69
2022/01/12 00:20:16;;;;;;;17.65;11.98;;;;;;;3.03;71.45;100721.28;2624351;54;20026;-69
2022/01/12 00:22:45;;;;;;;16.00;11.82;;;;;;;2.98;71.73;100714.56;2624606;54;20042;-69
2022/01/12 00:25:28;;;;;;;17.20;12.15;;;;;;;3.00;71.83;100722.31;2623959;54;20046;-71
2022/01/12 00:33:30;;;;;;;16.13;9.65;;;;;;;2.93;72.03;100715.78;2623792;54;20095;-69
2022/01/12 00:36:01;;;;;;;14.82;11.27;;;;;;;2.94;71.86;100723.53;2623028;47;20067;-69
2022/01/12 00:38:32;;;;;;;13.80;10.43;;;;;;;2.91;72.08;100731.56;2621444;47;20027;-68
2022/01/12 00:41:02;;;;;;;14.52;9.85;;;;;;;2.88;72.25;100728.31;2622264;54;20049;-69
2022/01/12 00:43:34;;;;;;;16.90;10.68;;;;;;;2.87;71.80;100731.84;2623462;46;20550;-70
2022/01/12 00:46:08;;;;;;;16.52;10.77;;;;;;;2.87;72.13;100732.69;2624084;47;20031;-68
2022/01/12 00:48:38;;;;;;;14.73;9.90;;;;;;;2.90;72.31;100742.13;2623760;54;20062;-72
2022/01/12 00:51:11;;;;;;;13.70;10.20;;;;;;;2.97;72.01;100738.16;2624374;54;20038;-68
2022/01/12 00:53:41;;;;;;;15.65;10.85;;;;;;;2.97;71.77;100743.41;2624685;54;20038;-69
2022/01/12 00:56:11;;;;;;;12.57;9.52;;;;;;;2.92;72.01;100750.69;2623902;47;20598;-69
2022/01/12 00:58:41;;;;;;;13.43;9.25;;;;;;;2.91;71.94;100752.47;2623678;47;20643;-68
2022/01/12 01:01:14;;;;;;;12.00;9.25;;;;;;;2.97;71.82;100757.28;2624614;54;20034;-68
2022/01/12 01:03:43;;;;;;;13.00;9.45;;;;;;;2.98;72.13;100751.16;2624352;54;20031;-68
2022/01/12 01:06:13;;;;;;;12.65;8.55;;;;;;;2.91;71.53;100760.31;2624603;54;20030;-68
2022/01/12 01:08:44;;;;;;;14.80;8.82;;;;;;;2.85;71.60;100765.91;2623729;54;20029;-68
2022/01/12 01:11:17;;;;;;;10.38;8.00;;;;;;;2.83;71.02;100759.94;2623508;47;20027;-70
2022/01/12 01:13:56;;;;;;;13.02;9.27;;;;;;;2.82;71.46;100763.50;2623327;54;20034;-69
2022/01/12 01:16:46;;;;;;;11.57;8.55;;;;;;;2.78;70.94;100750.72;2622192;47;20031;-70
2022/01/12 01:27:30;;;;;;;17.40;11.25;;;;;;;2.66;70.72;100732.25;2623277;47;20037;-69
2022/01/12 01:30:00;;;;;;;14.48;10.25;;;;;;;2.62;71.20;100740.38;2622775;47;20037;-69
2022/01/12 01:32:32;;;;;;;15.20;10.52;;;;;;;2.59;71.13;100732.72;2623197;54;20098;-69
2022/01/12 01:35:02;;;;;;;16.75;10.55;;;;;;;2.55;71.27;100746.91;2623752;47;20033;-69
2022/01/12 01:37:31;;;;;;;16.10;10.18;;;;;;;2.54;71.86;100745.25;2623713;54;20046;-69
2022/01/12 01:40:01;;;;;;;13.32;9.63;;;;;;;2.52;72.08;100747.09;2623010;46;20042;-70
2022/01/12 01:42:43;;;;;;;13.82;9.55;;;;;;;2.52;72.31;100747.91;2623486;47;20031;-69
2022/01/12 01:53:33;;;;;;;14.95;9.88;;;;;;;2.43;72.38;100740.66;2623423;47;20030;-70
2022/01/12 01:56:04;;;;;;;13.82;9.43;;;;;;;2.41;72.24;100737.31;2623673;47;20034;-69
2022/01/12 01:58:33;;;;;;;14.88;9.68;;;;;;;2.33;72.39;100740.38;2624281;39;20562;-69
2022/01/12 02:01:03;;;;;;;15.02;10.43;;;;;;;2.29;72.14;100745.88;2623688;47;20023;-69
2022/01/12 02:03:43;;;;;;;14.05;9.80;;;;;;;2.23;72.59;100742.69;2624565;54;20038;-73
2022/01/12 02:06:13;;;;;;;14.02;9.48;;;;;;;2.23;72.27;100740.09;2624618;54;20026;-69
2022/01/12 02:08:45;;;;;;;15.15;9.65;;;;;;;2.18;72.48;100749.97;2624409;47;20027;-69
2022/01/12 02:11:28;;;;;;;16.30;9.95;;;;;;;2.16;72.73;100754.44;2624731;47;20558;-69
2022/01/12 02:14:03;;;;;;;14.93;9.73;;;;;;;2.05;72.62;100745.56;2624401;54;20029;-69
2022/01/12 02:16:40;;;;;;;12.70;9.80;;;;;;;2.04;72.75;100746.47;2625925;39;20534;-69
2022/01/12 02:19:29;;;;;;;15.77;10.20;;;;;;;1.98;72.77;100738.09;2624767;54;20026;-69
2022/01/12 02:35:52;;;;;;;14.50;10.55;;;;;;;1.69;73.74;100765.03;2620679;54;20031;-69
2022/01/12 02:41:07;;;;;;;16.80;9.65;;;;;;;1.61;74.34;100765.47;2620043;47;20038;-69
2022/01/12 02:50:36;;;;;;;14.30;9.77;;;;;;;1.65;74.28;100768.75;2621525;39;20471;-69
2022/01/12 02:54:40;;;;;;;13.98;8.70;;;;;;;1.46;74.51;100759.34;2625444;54;20086;-69
2022/01/12 02:57:09;;;;;;;13.63;9.23;;;;;;;1.40;74.43;100764.91;2624587;54;20038;-69
2022/01/12 02:59:53;;;;;;;16.05;10.43;;;;;;;1.33;74.74;100767.94;2624945;54;20038;-70
2022/01/12 03:02:29;;;;;;;15.93;9.55;;;;;;;1.27;74.80;100765.69;2620940;47;20046;-71
2022/01/12 03:05:16;;;;;;;13.27;9.45;;;;;;;1.27;75.31;100770.91;2624795;54;20026;-68
2022/01/12 03:07:48;;;;;;;11.52;8.20;;;;;;;1.26;75.46;100751.81;2623393;54;20023;-68
2022/01/12 03:10:21;;;;;;;11.48;8.23;;;;;;;1.17;75.47;100753.16;2624068;39;20399;-69
2022/01/12 03:12:50;;;;;;;12.23;9.15;;;;;;;1.13;75.40;100753.41;2622741;47;20034;-69
2022/01/12 03:15:20;;;;;;;14.95;9.63;;;;;;;1.01;75.33;100760.13;2623580;54;20035;-69
2022/01/12 03:17:49;;;;;;;13.10;8.68;;;;;;;0.96;75.77;100770.81;2623534;54;20034;-69
2022/01/12 03:20:19;;;;;;;15.30;8.93;;;;;;;0.92;75.88;100781.47;2623383;47;20554;-69
2022/01/12 03:22:49;;;;;;;15.05;9.43;;;;;;;0.78;75.93;100784.00;2623605;47;20038;-69
2022/01/12 03:25:22;;;;;;;15.02;9.45;;;;;;;0.72;76.20;100805.97;2623106;54;20034;-69
2022/01/12 03:27:59;;;;;;;13.40;8.93;;;;;;;0.72;76.55;100809.41;2623671;54;20040;-69
2022/01/12 03:30:36;;;;;;;13.30;9.18;;;;;;;0.81;76.29;100802.03;2623741;47;20065;-69
2022/01/12 03:33:12;;;;;;;15.93;9.63;;;;;;;0.80;76.53;100797.75;2624104;47;20041;-69
2022/01/12 03:36:01;;;;;;;13.60;8.18;;;;;;;0.81;76.21;100797.66;2624095;54;20029;-69
2022/01/12 03:38:31;;;;;;;12.77;8.98;;;;;;;0.88;76.80;100785.16;2624337;47;20029;-69
2022/01/12 03:41:03;;;;;;;13.57;8.65;;;;;;;0.98;76.68;100779.41;2623502;47;20030;-69
2022/01/12 03:43:33;;;;;;;13.57;8.45;;;;;;;1.02;76.34;100781.81;2623810;54;20037;-69
2022/01/12 03:46:03;;;;;;;11.90;8.63;;;;;;;0.98;76.10;100787.22;2622753;54;20148;-69
2022/01/12 03:48:32;;;;;;;15.10;9.57;;;;;;;0.82;76.48;100798.53;2623829;39;20546;-69
2022/01/12 03:51:03;;;;;;;11.80;8.18;;;;;;;0.81;76.84;100802.03;2624479;54;20054;-69
2022/01/12 03:53:32;;;;;;;13.80;9.30;;;;;;;0.87;76.49;100802.56;2624048;54;20034;-69
2022/01/12 03:56:05;;;;;;;14.13;9.02;;;;;;;0.93;76.68;100812.63;2623987;46;20026;-69
2022/01/12 03:58:35;;;;;;;14.02;9.43;;;;;;;1.02;76.07;100824.34;2626467;39;20453;-71
2022/01/12 04:01:05;;;;;;;13.20;9.25;;;;;;;1.04;76.55;100825.09;2625158;54;20042;-69
2022/01/12 04:03:39;;;;;;;14.20;8.43;;;;;;;1.10;75.87;100834.34;2624462;47;20078;-69
2022/01/12 04:08:52;;;;;;;13.98;9.23;;;;;;;1.08;75.85;100842.25;2624675;47;20023;-69
2022/01/12 04:11:24;;;;;;;12.07;8.85;;;;;;;1.10;75.56;100823.91;2624709;54;20026;-69
2022/01/12 04:13:54;;;;;;;15.50;9.25;;;;;;;1.10;75.72;100821.31;2624726;54;20107;-70
2022/01/12 04:16:24;;;;;;;11.88;8.90;;;;;;;1.09;75.63;100820.47;2625124;39;20467;-67
2022/01/12 04:18:53;;;;;;;13.63;8.52;;;;;;;1.05;75.75;100833.75;2625145;50;20031;-67
2022/01/12 04:21:28;;;;;;;14.77;8.85;;;;;;;1.07;75.96;100834.53;2624990;54;20034;-67
2022/01/12 04:23:58;;;;;;;18.02;8.40;;;;;;;1.10;75.45;100832.59;2624910;47;20107;-68
2022/01/12 04:26:31;;;;;;;11.35;8.18;;;;;;;1.08;75.50;100833.59;2624666;51;20112;-67
2022/01/12 04:29:00;;;;;;;11.65;8.20;;;;;;;1.08;75.56;100828.38;2625474;46;20031;-68
2022/01/12 04:31:30;;;;;;;11.68;8.55;;;;;;;1.07;75.86;100834.53;2625446;39;20514;-67
2022/01/12 04:34:00;;;;;;;13.10;8.48;;;;;;;0.88;75.43;100839.84;2624434;47;20030;-67
2022/01/12 04:36:30;;;;;;;11.70;8.18;;;;;;;0.79;75.58;100846.38;2624768;51;20045;-69
2022/01/12 04:39:00;;;;;;;19.42;12.02;;;;;;;0.80;75.99;100836.81;2624595;47;20027;-69
2022/01/12 04:41:32;;;;;;;14.00;9.45;;;;;;;0.72;75.77;100847.63;2625127;54;20029;-68
2022/01/12 04:44:02;;;;;;;12.52;8.70;;;;;;;0.76;76.58;100848.31;2624492;47;20029;-69
2022/01/12 04:46:37;;;;;;;15.45;9.57;;;;;;;0.83;76.36;100844.47;2624708;54;20638;-69
2022/01/12 04:49:25;;;;;;;11.90;8.70;;;;;;;0.83;76.09;100847.06;2624704;54;20597;-68
2022/01/12 04:51:55;;;;;;;13.15;8.70;;;;;;;0.85;76.16;100853.88;2620067;47;20070;-69
2022/01/12 04:54:25;;;;;;;14.00;9.13;;;;;;;0.89;76.07;100846.72;2620343;39;20410;-69
2022/01/12 04:56:59;;;;;;;13.23;8.80;;;;;;;0.92;75.94;100842.22;2619447;46;20110;-68
2022/01/12 04:59:29;;;;;;;13.13;8.02;;;;;;;0.88;75.92;100839.84;2619825;47;20041;-69
2022/01/12 05:02:12;;;;;;;15.18;9.20;;;;;;;0.90;76.10;100845.84;2619705;54;20046;-69
2022/01/12 05:07:29;;;;;;;12.30;8.52;;;;;;;0.73;76.00;100837.16;2619354;47;20835;-68
2022/01/12 05:12:54;;;;;;;14.13;9.57;;;;;;;0.76;75.99;100824.88;2620555;46;20058;-68
2022/01/12 05:15:34;;;;;;;13.32;9.05;;;;;;;0.64;76.25;100827.19;2619388;54;20566;-67
2022/01/12 05:18:04;;;;;;;15.82;9.18;;;;;;;0.61;76.25;100827.38;2617677;47;20039;-63
2022/01/12 05:20:34;;;;;;;13.48;9.00;;;;;;;0.59;76.25;100836.16;2617733;47;20041;-64
2022/01/12 05:23:04;;;;;;;10.70;8.27;;;;;;;0.56;76.57;100844.97;2617971;54;20022;-62
2022/01/12 05:25:34;;;;;;;12.63;8.63;;;;;;;0.59;76.63;100830.97;2619669;54;20034;-64
2022/01/12 05:28:06;;;;;;;12.25;8.32;;;;;;;0.60;76.36;100830.88;2622137;54;20030;-62
2022/01/12 05:30:36;;;;;;;12.40;8.35;;;;;;;0.55;76.28;100838.09;2622694;54;20114;-62
2022/01/12 05:33:06;;;;;;;14.30;8.63;;;;;;;0.53;76.53;100833.88;2622606;54;20038;-62
2022/01/12 05:35:36;;;;;;;11.35;7.80;;;;;;;0.58;76.59;100830.13;2622769;47;20070;-62
2022/01/12 05:38:11;;;;;;;12.45;7.85;;;;;;;0.62;76.25;100836.03;2618954;54;20053;-62
2022/01/12 05:40:41;;;;;;;12.73;8.73;;;;;;;0.62;76.33;100836.03;2618010;54;20027;-63
2022/01/12 05:43:24;;;;;;;13.98;9.77;;;;;;;0.44;75.83;100827.38;2618008;54;20031;-64
2022/01/12 05:45:56;;;;;;;16.30;9.75;;;;;;;0.29;76.46;100844.63;2618501;39;20547;-63
2022/01/12 05:51:09;;;;;;;15.18;9.80;;;;;;;0.20;76.81;100827.72;2617946;47;20023;-63
2022/01/12 05:53:39;;;;;;;14.13;9.43;;;;;;;0.23;76.99;100827.53;2620523;54;20018;-64
2022/01/12 05:56:09;;;;;;;14.23;9.45;;;;;;;0.22;77.01;100825.03;2622779;54;20031;-64
2022/01/12 05:58:41;;;;;;;12.80;9.18;;;;;;;0.17;76.85;100830.47;2622601;54;20027;-64
2022/01/12 06:01:13;;;;;;;13.98;8.77;;;;;;;0.09;77.31;100824.81;2621937;54;20033;-63
2022/01/12 06:03:43;;;;;;;14.35;9.30;;;;;;;0.10;77.03;100836.88;2622039;54;20037;-64
2022/01/12 06:06:13;;;;;;;16.42;10.45;;;;;;;0.07;77.19;100850.03;2621841;47;20077;-64
2022/01/12 06:08:43;;;;;;;14.95;9.95;;;;;;;0.12;77.32;100853.28;2622125;47;20573;-63
2022/01/12 06:11:13;;;;;;;16.40;10.30;;;;;;;0.17;77.45;100858.25;2621791;46;20034;-62
2022/01/12 06:13:47;;;;;;;16.80;10.27;;;;;;;0.27;76.95;100856.84;2620370;47;20058;-63
2022/01/12 06:16:17;;;;;;;13.52;9.20;;;;;;;0.33;77.32;100869.56;2618975;54;20046;-64
2022/01/12 06:18:47;;;;;;;18.50;10.68;;;;;;;0.39;76.92;100866.66;2618245;46;20050;-64
2022/01/12 06:21:17;;;;;;;15.68;10.75;;;;;;;0.44;76.61;100858.59;2617989;54;20042;-64
2022/01/12 06:24:12;;;;;;;14.82;10.13;;;;;;;0.42;76.33;100863.91;2618418;54;20031;-63
2022/01/12 06:26:43;;;;;;;16.80;10.82;;;;;;;0.40;76.36;100857.91;2617466;47;20585;-63
2022/01/12 06:29:38;;;;;;;14.88;10.35;;;;;;;0.37;76.50;100852.88;2618258;54;20059;-63
2022/01/12 06:32:09;;;;;;;20.85;12.00;;;;;;;0.31;76.70;100867.94;2617748;54;20102;-62
2022/01/12 06:34:39;;;;;;;15.93;10.43;;;;;;;0.15;76.53;100876.50;2618350;54;20083;-63
2022/01/12 06:37:11;;;;;;;16.38;11.20;;;;;;;0.13;77.20;100878.34;2617694;51;20053;-62
2022/01/12 06:39:41;;;;;;;16.63;10.20;;;;;;;0.08;77.08;100892.47;2617941;54;20046;-62
2022/01/12 06:42:11;;;;;;;21.48;12.45;;;;;;;0.04;77.34;100894.41;2617807;47;20034;-62
2022/01/12 06:44:43;;;;;;;17.48;10.93;;;;;;;0.12;77.21;100886.22;2618303;50;20022;-62
2022/01/12 06:47:14;;;;;;;18.52;11.27;;;;;;;0.15;77.14;100883.47;2619489;39;20427;-62
2022/01/12 06:49:43;;;;;;;13.82;9.80;;;;;;;0.16;76.82;100896.44;2618275;54;20042;-62
2022/01/12 06:52:14;;;;;;;14.88;9.05;;;;;;;0.15;76.87;100892.13;2618753;54;20042;-63
2022/01/12 06:54:43;;;;;;;13.30;9.15;;;;;;;0.12;77.15;100902.69;2618291;47;20042;-63
2022/01/12 06:57:13;;;;;;;14.75;9.45;;;;;;;0.15;77.30;100907.72;2618925;54;20026;-63
2022/01/12 06:59:45;;;;;;;15.25;10.27;;;;;;;0.20;77.08;100907.50;2618669;54;20033;-63
2022/01/12 07:02:18;;;;;;;17.77;10.07;;;;;;;0.04;76.77;100919.56;2618607;47;20645;-63
2022/01/12 07:04:51;;;;;;;14.52;10.07;;;;;;;-0.12;77.10;100912.50;2618902;39;20434;-63
2022/01/12 07:07:24;;;;;;;14.82;10.23;;;;;;;-0.06;77.37;100911.38;2618188;54;20030;-63
2022/01/12 07:09:58;;;;;;;17.25;10.68;;;;;;;-0.01;77.36;100909.38;2618654;54;20026;-63
2022/01/12 07:12:30;;;;;;;15.98;10.88;;;;;;;-0.03;76.91;100906.88;2619711;47;20557;-62
2022/01/12 07:15:02;;;;;;;17.67;10.95;;;;;;;0.05;77.03;100898.69;2619420;54;20018;-63
2022/01/12 07:17:34;;;;;;;18.45;10.32;;;;;;;0.02;76.98;100904.03;2618661;54;20033;-63
2022/01/12 07:20:05;;;;;;;13.70;9.05;;;;;;;-0.05;76.75;100906.06;2619255;54;20022;-63
2022/01/12 07:22:40;;;;;;;15.27;9.05;;;;;;;-0.13;76.81;100915.16;2620624;39;20459;-63
2022/01/12 07:25:10;;;;;;;12.55;8.50;;;;;;;-0.18;76.99;100915.38;2619246;54;20042;-63
2022/01/12 07:27:41;;;;;;;13.88;8.77;;;;;;;-0.19;77.62;100916.31;2619329;54;20031;-64
2022/01/12 07:30:14;;;;;;;12.95;8.38;;;;;;;-0.22;77.46;100929.44;2618898;54;20046;-64
2022/01/12 07:32:44;;;;;;;12.35;8.35;;;;;;;-0.26;77.56;100949.53;2618780;54;20026;-63
2022/01/12 07:35:13;;;;;;;14.65;8.93;;;;;;;-0.25;77.79;100968.56;2618534;54;20041;-64
2022/01/12 07:37:43;;;;;;;13.82;8.80;;;;;;;-0.18;77.63;100964.78;2620155;54;20067;-63
2022/01/12 07:40:14;;;;;;;15.18;9.52;;;;;;;-0.08;77.88;100973.84;2622012;54;20034;-62
2022/01/12 07:42:44;;;;;;;15.15;9.68;;;;;;;0.02;77.35;100984.66;2621571;54;20046;-62
2022/01/12 07:45:18;;;;;;;15.02;9.23;;;;;;;0.11;77.59;100978.16;2618595;47;20154;-62
2022/01/12 07:47:47;;;;;;;19.10;9.50;;;;;;;0.20;77.06;100977.72;2619034;47;20034;-63
2022/01/12 07:50:17;;;;;;;20.55;11.65;;;;;;;0.22;76.98;100983.72;2618224;47;20039;-62
2022/01/12 07:52:47;;;;;;;19.27;11.60;;;;;;;0.21;76.63;100997.66;2618595;54;20074;-61
2022/01/12 07:55:16;;;;;;;19.90;11.82;;;;;;;0.20;76.49;101004.59;2618707;54;20035;-61
2022/01/12 07:57:46;;;;;;;16.83;10.52;;;;;;;0.16;76.66;101004.78;2619441;54;20548;-62
2022/01/12 08:00:20;;;;;;;16.77;10.73;;;;;;;0.15;76.19;101011.75;2619997;54;20065;-62
2022/01/12 08:02:50;;;;;;;18.42;11.30;;;;;;;0.15;76.34;101021.31;2619720;54;20649;-62
2022/01/12 08:05:21;;;;;;;19.90;12.68;;;;;;;0.19;76.18;101021.09;2620337;54;20031;-62
2022/01/12 08:07:54;;;;;;;20.63;11.60;;;;;;;0.14;76.66;101022.25;2619847;54;20037;-62
2022/01/12 08:10:24;;;;;;;16.42;10.05;;;;;;;0.18;76.46;101018.59;2619784;54;20031;-62
2022/01/12 08:12:54;;;;;;;15.10;10.50;;;;;;;0.25;76.18;101014.78;2619591;54;20144;-62
2022/01/12 08:15:26;;;;;;;17.27;11.05;;;;;;;0.29;76.10;101018.09;2619141;47;20027;-62
2022/01/12 08:17:55;;;;;;;13.82;10.00;;;;;;;0.36;75.88;101016.88;2619663;54;20038;-62
2022/01/12 08:20:28;;;;;;;18.80;11.10;;;;;;;0.38;75.56;101017.66;2619286;54;20550;-62
2022/01/12 08:22:57;;;;;;;16.92;11.00;;;;;;;0.40;75.73;101028.81;2619602;54;20033;-62
2022/01/12 08:25:28;;;;;;;22.95;12.65;;;;;;;0.45;75.64;101025.09;2619857;54;20026;-62
2022/01/12 08:27:57;;;;;;;22.73;12.27;;;;;;;0.45;75.46;101025.09;2620137;54;20027;-62
2022/01/12 08:30:32;;;;;;;27.08;12.68;;;;;;;0.52;75.38;101019.56;2620003;54;20087;-62
2022/01/12 08:33:01;;;;;;;21.30;12.80;;;;;;;0.51;75.67;101013.53;2619786;54;20057;-62
2022/01/12 08:35:31;;;;;;;18.35;11.43;;;;;;;0.54;75.51;101018.59;2619988;54;20576;-62
2022/01/12 08:38:01;;;;;;;18.42;12.25;;;;;;;0.58;75.46;101024.50;2619503;54;20042;-62
2022/01/12 08:40:31;;;;;;;18.10;10.45;;;;;;;0.56;75.09;101032.38;2620339;54;20039;-62
2022/01/12 08:43:01;;;;;;;16.73;11.00;;;;;;;0.57;75.36;101034.06;2620136;54;20042;-62
2022/01/12 08:45:33;;;;;;;18.65;11.90;;;;;;;0.68;75.62;101029.16;2620093;54;20034;-62
2022/01/12 08:48:02;;;;;;;15.10;9.77;;;;;;;0.80;75.54;101013.88;2619705;54;20030;-62
2022/01/12 08:50:32;;;;;;;17.77;11.48;;;;;;;0.88;75.32;101016.94;2620743;39;20421;-62
2022/01/12 08:53:02;;;;;;;14.55;10.20;;;;;;;0.88;74.87;101017.75;2620316;54;20038;-62
2022/01/12 08:55:32;;;;;;;19.33;11.18;;;;;;;0.92;74.58;101016.69;2619561;47;20041;-62
2022/01/12 08:58:05;;;;;;;17.83;11.10;;;;;;;0.89;74.52;101011.63;2620311;54;20066;-62
2022/01/12 09:00:38;;;;;;;16.23;11.00;;;;;;;0.98;75.29;101016.41;2620433;54;20030;-62
2022/01/12 09:03:08;;;;;;;17.50;10.07;;;;;;;1.12;74.95;101020.91;2620430;54;20038;-62
2022/01/12 09:05:38;;;;;;;19.58;11.35;;;;;;;1.23;75.03;101023.81;2620718;54;20045;-62
2022/01/12 09:08:08;;;;;;;14.30;10.35;;;;;;;1.32;74.50;101035.53;2618933;54;20610;-63
2022/01/12 09:10:38;;;;;;;14.88;10.32;;;;;;;1.32;73.99;101048.56;2618968;47;20041;-62
2022/01/12 09:13:08;;;;;;;15.77;10.15;;;;;;;1.35;74.15;101051.00;2620117;54;20074;-61
2022/01/12 09:15:40;;;;;;;16.52;10.18;;;;;;;1.35;73.88;101048.41;2621205;54;20038;-62
2022/01/12 09:18:10;;;;;;;16.85;11.20;;;;;;;1.38;73.84;101047.38;2620949;54;20034;-63
2022/01/12 09:20:39;;;;;;;13.77;9.73;;;;;;;1.36;73.48;101055.28;2621599;54;20074;-62
2022/01/12 09:23:09;;;;;;;22.58;10.70;;;;;;;1.51;73.91;101058.88;2619639;54;20039;-62
2022/01/12 09:25:39;;;;;;;16.63;12.23;;;;;;;1.56;73.08;101063.84;2618619;54;20090;-62
2022/01/12 09:28:09;;;;;;;16.50;12.15;;;;;;;1.61;73.17;101060.06;2620353;54;20039;-62
2022/01/12 09:30:42;;;;;;;16.10;10.88;;;;;;;1.60;72.47;101053.19;2622070;39;20438;-62
2022/01/12 09:33:12;;;;;;;22.50;13.57;;;;;;;1.61;72.42;101059.22;2620762;54;20030;-62
2022/01/12 09:35:43;;;;;;;28.45;14.15;;;;;;;1.66;72.56;101065.03;2620453;54;20030;-62
2022/01/12 09:38:13;;;;;;;22.70;14.68;;;;;;;1.79;72.95;101063.47;2621080;54;20042;-63
2022/01/12 09:40:42;;;;;;;21.30;12.38;;;;;;;1.86;72.24;101054.41;2622134;54;20058;-62
2022/01/12 09:43:12;;;;;;;17.60;11.68;;;;;;;1.87;71.74;101053.47;2621814;54;20589;-62
2022/01/12 09:45:49;;;;;;;15.75;10.60;;;;;;;1.90;71.97;101050.69;2621015;54;20033;-62
2022/01/12 09:48:21;;;;;;;14.32;10.32;;;;;;;1.97;71.78;101054.66;2620070;54;20049;-63
2022/01/12 09:50:53;;;;;;;17.58;10.93;;;;;;;2.01;71.23;101067.56;2623406;54;20031;-63
2022/01/12 09:53:23;;;;;;;18.88;11.73;;;;;;;1.95;71.09;101059.13;2623674;54;20647;-64
2022/01/12 09:55:52;;;;;;;17.33;11.50;;;;;;;1.98;70.98;101068.56;2623053;54;20053;-63
2022/01/12 09:58:26;;;;;;;16.88;11.27;;;;;;;2.04;71.43;101068.25;2624127;54;20030;-63
2022/01/12 10:01:02;;;;;;;;;;;;;;;2.11;71.33;101077.41;2625261;54;20030;-69
2022/01/12 10:03:34;;;;;;;16.48;10.07;;;;;;;2.17;70.58;101074.47;2624274;47;19943;-69
2022/01/12 10:06:14;;;;;;;16.80;10.10;;;;;;;2.28;70.51;101068.66;2624068;46;20042;-69
2022/01/12 10:08:44;;;;;;;15.60;10.48;;;;;;;2.39;69.80;101078.50;2624933;54;20041;-69
2022/01/12 10:11:16;;;;;;;13.93;8.55;;;;;;;2.44;69.18;101085.16;2623398;47;20031;-69
2022/01/12 10:13:57;;;;;;;14.60;9.23;;;;;;;2.57;69.53;101089.69;2623005;47;20022;-69
2022/01/12 10:16:30;;;;;;;15.35;9.90;;;;;;;2.54;68.69;101092.50;2622480;54;20029;-68
2022/01/12 10:19:01;;;;;;;13.77;8.77;;;;;;;2.50;68.42;101096.22;2623174;54;20082;-68
2022/01/12 10:21:37;;;;;;;20.02;12.25;;;;;;;2.70;68.03;101098.53;2624836;54;20026;-67
2022/01/12 10:24:09;;;;;;;16.05;10.40;;;;;;;2.80;67.31;101089.25;2624681;54;20034;-68
2022/01/12 10:26:41;;;;;;;15.05;10.05;;;;;;;2.86;67.86;101088.06;2624785;54;20031;-68
2022/01/12 10:29:14;;;;;;;12.98;9.25;;;;;;;2.97;67.23;101085.66;2623751;54;20109;-67
2022/01/12 10:31:48;;;;;;;14.70;9.75;;;;;;;3.03;66.83;101079.28;2624402;47;20034;-70
2022/01/12 10:34:23;;;;;;;16.30;10.25;;;;;;;3.15;66.73;101060.25;2623871;54;20042;-70
2022/01/12 10:36:54;;;;;;;13.45;8.77;;;;;;;3.29;66.56;101056.81;2623716;54;20060;-70
2022/01/12 10:39:29;;;;;;;13.25;9.35;;;;;;;3.35;66.69;101057.31;2624785;39;20422;-70
2022/01/12 10:42:02;;;;;;;12.55;9.32;;;;;;;3.46;65.80;101049.66;2623775;54;20031;-70
2022/01/12 10:44:34;;;;;;;10.30;8.32;;;;;;;3.50;65.39;101055.53;2623178;54;20037;-70
2022/01/12 10:47:10;;;;;;;10.73;8.05;;;;;;;3.52;64.54;101051.06;2623025;54;20026;-70
2022/01/12 10:49:42;;;;;;;9.80;7.50;;;;;;;3.53;64.56;101042.28;2623271;54;20135;-70
2022/01/12 10:52:15;;;;;;;14.35;8.50;;;;;;;3.61;65.33;101031.38;2623190;54;20094;-70
2022/01/12 10:54:50;;;;;;;10.10;7.82;;;;;;;3.68;63.39;101025.66;2623578;54;20031;-69
2022/01/12 10:57:23;;;;;;;10.05;7.30;;;;;;;3.61;63.25;101024.34;2623677;47;20042;-69
2022/01/12 11:00:07;;;;;;;9.25;8.00;;;;;;;3.64;63.32;101041.66;2623882;47;20046;-69
2022/01/12 11:02:41;;;;;;;10.07;7.38;;;;;;;3.63;63.43;101035.56;2623579;54;20038;-70
2022/01/12 11:05:11;;;;;;;8.55;6.50;;;;;;;3.67;63.19;101041.44;2624006;54;20038;-69
2022/01/12 11:07:41;;;;;;;10.50;7.00;;;;;;;3.71;63.09;101035.09;2624957;54;20041;-69
2022/01/12 11:10:13;;;;;;;13.52;6.85;;;;;;;3.77;63.79;101037.34;2624616;54;20057;-69
2022/01/12 11:12:47;;;;;;;9.35;7.07;;;;;;;3.93;63.29;101035.44;2623457;54;20558;-68
2022/01/12 11:15:19;;;;;;;9.25;7.30;;;;;;;3.99;63.45;101039.44;2622378;54;20042;-69
2022/01/12 11:17:53;;;;;;;9.43;6.88;;;;;;;4.01;62.98;101037.59;2622127;47;20023;-68
2022/01/12 11:20:26;;;;;;;;;;;;;;;4.06;62.76;101039.91;2622623;54;20565;-69
2022/01/12 11:23:04;;;;;;;9.40;6.53;;;;;;;4.11;63.00;101038.69;2621789;54;19946;-69
2022/01/12 11:25:37;;;;;;;8.77;6.70;;;;;;;4.16;62.94;101049.72;2622789;54;20042;-68
2022/01/12 11:28:16;;;;;;;8.20;6.63;;;;;;;4.15;61.87;101055.03;2623198;54;20026;-69
2022/01/12 11:30:50;;;;;;;10.25;8.38;;;;;;;4.22;61.74;101051.94;2621856;54;20649;-69
2022/01/12 11:33:24;;;;;;;9.13;6.97;;;;;;;4.26;62.24;101057.84;2623199;54;20058;-67
2022/01/12 11:35:55;;;;;;;9.30;6.80;;;;;;;4.38;61.20;101053.59;2623874;54;20045;-67
2022/01/12 12:20:14;;;;;;;7.65;5.65;;;;;;;4.26;60.11;101010.69;2614988;46;20033;-68
2022/01/12 12:22:46;;;;;;;7.57;6.65;;;;;;;4.20;60.26;101016.31;2625435;54;20034;-68
2022/01/12 12:25:18;;;;;;;8.63;6.85;;;;;;;4.36;60.07;101010.94;2625600;54;20037;-69
2022/01/12 12:27:53;;;;;;;7.97;6.68;;;;;;;4.43;59.65;101010.44;2625278;54;20034;-68
2022/01/12 12:30:25;;;;;;;8.98;7.10;;;;;;;4.47;59.21;101009.31;2625183;54;20530;-68
2022/01/12 12:32:57;;;;;;;10.35;7.07;;;;;;;4.38;59.60;101003.84;2625768;39;20579;-69
2022/01/12 12:35:31;;;;;;;9.13;6.93;;;;;;;4.44;59.00;101004.25;2624901;54;20039;-69
2022/01/12 12:38:01;;;;;;;;;;;;;;;4.47;58.56;101000.63;2624145;54;20030;-67
2022/01/12 12:40:33;;;;;;;8.68;7.38;;;;;;;4.52;59.00;100995.91;2625350;39;20318;-69
2022/01/12 12:43:05;;;;;;;10.55;7.45;;;;;;;4.47;58.86;100990.97;2624545;47;20030;-69
2022/01/12 12:45:41;;;;;;;12.02;8.55;;;;;;;4.53;59.00;100988.88;2624904;47;20027;-68
2022/01/12 12:48:12;;;;;;;11.55;8.60;;;;;;;4.62;58.71;100996.16;2625206;54;20038;-69
2022/01/12 12:50:47;;;;;;;12.23;9.35;;;;;;;4.63;59.60;100984.75;2624668;54;20035;-68
2022/01/12 12:53:17;;;;;;;10.90;8.45;;;;;;;4.69;59.02;100982.56;2625377;54;20571;-68
2022/01/12 12:55:48;;;;;;;11.77;8.93;;;;;;;4.66;58.84;100976.69;2625515;54;20113;-69
2022/01/12 12:58:18;;;;;;;10.48;7.88;;;;;;;4.60;59.13;100980.53;2624756;54;20082;-69
2022/01/12 13:00:48;;;;;;;11.25;9.00;;;;;;;4.74;58.78;100970.94;2624860;54;20034;-69
2022/01/12 13:03:18;;;;;;;11.55;9.25;;;;;;;4.76;58.65;100972.50;2625013;54;20094;-69
2022/01/12 13:05:50;;;;;;;12.43;9.00;;;;;;;4.78;59.35;100977.66;2624478;47;20109;-69
2022/01/12 13:08:20;;;;;;;12.82;8.98;;;;;;;4.87;59.37;100977.88;2625260;54;20033;-69
2022/01/12 13:10:50;;;;;;;10.18;8.10;;;;;;;5.03;58.34;100974.22;2624999;54;20027;-69
2022/01/12 13:13:20;;;;;;;11.63;8.18;;;;;;;5.06;57.90;100989.72;2625231;54;20052;-69
2022/01/12 13:15:50;;;;;;;10.80;7.88;;;;;;;5.01;57.68;100992.66;2624991;54;20042;-69
2022/01/12 13:18:22;;;;;;;11.68;8.00;;;;;;;4.95;57.61;100993.91;2625335;54;20046;-68
2022/01/12 13:21:09;;;;;;;12.35;8.50;;;;;;;4.98;57.79;100998.13;2626290;39;20434;-69
2022/01/12 13:23:42;;;;;;;10.45;8.13;;;;;;;5.02;57.46;100993.50;2624709;54;20035;-68
2022/01/12 13:26:15;;;;;;;11.10;7.75;;;;;;;4.99;57.40;100993.72;2625238;54;20038;-68